AirNav   Air Wisconsin pilot careers
 
 343 users online  

67S Priest Lake USFS Airport
Nordman, Idaho, USA

GOING TO NORDMAN?


FAA INFORMATION EFFECTIVE 19 JULY 2018

Location

FAA Identifier: 67S
Lat/Long: 48-34-26.4000N / 116-57-30.9000W
48-34.440000N / 116-57.515000W
48.5740000 / -116.9585833
(estimated)
Elevation: 2611 ft. / 796 m (estimated)
Variation: 20E (1985)
From city: 3 miles S of NORDMAN, ID
Time zone: UTC -7 (UTC -8 during Standard Time)
Zip code: 83856

Airport Operations

Airport use: Open to the public
Activation date: 08/1949
Control tower: no
ARTCC: SEATTLE CENTER
FSS: BOISE FLIGHT SERVICE STATION
NOTAMs facility: BOI (NOTAM-D service available)
Attendance: UNATNDD
Wind indicator: yes
Segmented circle: no

Airport Communications

CTAF: 122.9

Nearby radio navigation aids

NDB name  Hdg/Dist  Freq  Var  ID
IONE093/19.837921EION .. --- -.
SANDPOE303/23.226414ESZT ... --.. -

Airport Services

Parking: tiedowns
Airframe service: NONE
Powerplant service: NONE

Runway Information

Runway 14/32

Dimensions: 4400 x 175 ft. / 1341 x 53 m
MAY NOT BE MOWED TO FULL WIDTH.
Surface: turf/gravel, in fair condition
Runway edge markings: 14/32 THLDS MKD WITH CONC STRIPS.
RUNWAY 14  RUNWAY 32
Latitude: 48-34.783938N48-34.096802N
Longitude: 116-57.686078W116-57.343335W
Elevation: 2611.0 ft.2586.0 ft.
Gradient: 0.6% UP
Traffic pattern: leftleft
Runway heading: 142 magnetic, 162 true322 magnetic, 342 true
Obstructions: 15 ft. road, 480 ft. from runway, 32:1 slope to clear
+60' TREES AT 300' TO 1000' ON CNTRLN.
15 ft. road, 275 ft. from runway, 100 ft. left of centerline, 18:1 slope to clear
+14 FT ROAD 300 FT ON CNTRLN; 60 FT TREES 500 FT TO 1000 FT ON CNTRLN.

Airport Ownership and Management from official FAA records

Ownership: Publicly-owned
Owner: U.S. FOREST SERVICE
P.O.BOX 7669
MISSOULA, MT 59807
Phone 406-329-3511
Manager: PANHANDLE FOREST AIR OFFICER
11569 N AIRPORT DR.
HAYDEN, ID 83835
Phone 208-762-6926

Airport Operational Statistics

Aircraft operations: avg 23/week *
100% transient general aviation
* for 12-month period ending 15 September 2015

Additional Remarks

NO WINTER MAINTENANCE.
DO NOT PARK ACFT WITHIN 100 FT OF WX STATION.
USFS HELIPAD PRIVATE USE - LOCATED ON AIRPORT.

Instrument Procedures

There are no published instrument procedures at 67S.

Some nearby airports with instrument procedures:

KSZT - Sandpoint Airport (23 nm SE)
65S - Boundary County Airport (28 nm E)
KDEW - Deer Park Airport (41 nm SW)
KCOE - Coeur d'Alene Airport - Pappy Boyington Field (48 nm S)
KSFF - Felts Field Airport (55 nm S)
 
Loc | Ops | Rwys | IFR | FBO | Links
Com | Nav | Svcs | Stats | Notes


 
Area around 67S (Priest Lake USFS Airport)
 
Road maps at: MapQuest Bing Google
 
Aerial photo
WARNING: Photo may not be current or correct
Aerial photo of 67S (Priest Lake USFS Airport)
Photo by Tim Riley.
Taken in May 2009

Do you have a better or more recent aerial photo of Priest Lake USFS Airport that you would like to share? If so, please send us your photo.

 
Sectional chart

 
Airport distance calculator
Flying to Priest Lake USFS Airport? Find the distance to fly.

From to 67S

Sunrise and sunset
Times for 23-Jul-2018
 Local
(UTC-7)
 Zulu
(UTC)
Morning civil twilight04:3311:33
Sunrise05:1212:12
Sunset20:3703:37
Evening civil twilight21:1504:15

Current date and time
Zulu (UTC)  23-Jul-2018 07:03:02
Local (UTC-7)  23-Jul-2018 00:03:02
 
METAR
KSZT 
23nm SE 
230655Z AUTO 00000KT 10SM CLR 12/06 A3017 RMK AO2
K65S 
28nm E 
230655Z AUTO 00000KT 10SM CLR 15/05 A3017 RMK AO2
CWJR 
35nm NE 
230600Z AUTO 02002KT 20/06 RMK AO1 SLP212 T01960061 53006
KDEW 
41nm SW 
230653Z AUTO 32005KT 10SM CLR 11/06 A3016 RMK AO2 SLP207 T01110056
TAF
KCOE 
49nm S 
230529Z 2306/2406 VRB05KT P6SM SKC
CYCG 
50nm NW 
230038Z 2301/2304 VRB03KT P6SM FEW070 RMK NXT FCST WILL BE ISSUED AT 231445Z
NOTAMs
Click for the latest NOTAMs
NOTAMs are issued by the DoD/FAA and will open in a separate window not controlled by AirNav.

 

 
 

Would you like to see your business listed on this page?

 If your business provides an interesting product or service to pilots, flight crews, aircraft, or users of the Priest Lake USFS Airport, you should consider listing it here.  To start the listing process, click on the button below
 
Add a business
 

Other Pages about Priest Lake USFS Airport

Update a link
 
Copyright © AirNav, LLC. All rights reserved. Privacy Policy  Contact